Latest Coastal Weather Observations for Moruya Airport

IDN60701

Issued at 1:11 am EST Saturday 1 October 2016 (issued every 10 minutes, with the page automatically refreshed every 10 minutes)

About coastal observations | Map of coastal stations | Coastal observations for NSW | Marine services | Other Formats
Station Details ID: 069148 Name: MORUYA AIRPORT AWS Lat: -35.90 Lon: 150.14 Height: 4.0 m
Data from the previous 72 hours. | See also: Recent months at Moruya Airport
Date/Time
EST
Temp
°C
Wind Pressure Rain since
9am
mm
Weather Cloud Vis
km
Sea
Height
m
Swell
Dir  Spd
kts
Gust
kts
hPa Trend Height
m
Period
s
Dir
01/01:00am 11.5 NW 5 8 998.4 - 0.0 - - 10 - - - -
01/12:30am 11.4 NNW 6 9 998.5 - 0.0 - - 10 - - - -
01/12:00am 10.9 NNW 5 8 998.5 - 0.0 - - 10 - - - -
 
Date/Time
EST
Temp
°C
Wind Pressure Rain since
9am
mm
Weather Cloud Vis
km
Sea
Height
m
Swell
Dir  Spd
kts
Gust
kts
hPa Trend Height
m
Period
s
Dir
30/11:30pm 10.2 N 4 6 998.3 - 0.0 - - 10 - - - -
30/11:00pm 10.9 NW 3 6 998.3 - 0.0 - - 10 - - - -
30/10:30pm 12.3 N 5 8 998.2 - 0.0 - - 10 - - - -
30/10:00pm 12.0 NNW 5 7 998.5 - 0.0 - - 10 - - - -
30/09:30pm 12.4 NNW 4 6 998.2 - 0.0 - - 10 - - - -
30/09:00pm 12.2 NNW 3 7 997.8 - 0.0 - Partly cloudy 10 - - - -
30/08:30pm 12.9 NNW 4 6 997.6 - 0.0 - - 10 - - - -
30/08:00pm 13.5 NW 6 9 997.0 - 0.0 - - 10 - - - -
30/07:30pm 13.9 NNW 8 11 996.6 - 0.0 - - 10 - - - -
30/07:00pm 14.3 NW 7 11 996.0 - 0.0 - - 10 - - - -
30/06:30pm 14.7 NW 7 10 995.6 - 0.0 - - 10 - - - -
30/06:00pm 15.2 NNW 8 15 994.9 - 0.0 - - 10 - - - -
30/05:30pm 16.2 NNW 9 17 994.3 - 0.0 - - 10 - - - -
30/05:00pm 17.2 NW 10 15 994.1 - 0.0 - - 10 - - - -
30/04:30pm 17.9 NW 11 18 993.8 - 0.0 - - 10 - - - -
30/04:00pm 17.8 NNW 13 22 993.2 - 0.0 - - 10 - - - -
30/03:30pm 18.0 NW 13 22 992.9 - 0.0 - Partly cloudy 10 - - - -
30/03:00pm 18.3 WNW 13 18 992.9 - 0.0 - Mostly clear 10 - - - -
30/02:30pm 17.6 WNW 10 18 992.8 - 0.0 - Partly cloudy 10 - - - -
30/02:00pm 17.8 N 10 17 992.7 - 0.0 - Partly cloudy 10 - - - -
30/01:30pm 17.4 N 10 18 992.8 - 0.0 - Partly cloudy 10 - - - -
30/01:00pm 18.0 N 10 16 993.0 - 0.0 - Partly cloudy 10 - - - -
30/12:30pm 16.6 N 11 17 993.4 - 0.0 - Partly cloudy 10 - - - -
30/12:00pm 16.4 N 11 15 993.7 - 0.0 - Mostly cloudy 10 - - - -
30/11:30am 16.2 N 10 16 993.9 - 0.0 - Partly cloudy 10 - - - -
30/11:00am 15.7 N 10 16 994.0 - 0.0 - Partly cloudy 10 - - - -
30/10:30am 15.8 NNW 10 15 993.9 - 0.0 - Partly cloudy 10 - - - -
30/10:00am 15.6 NNW 11 16 993.9 - 0.0 - Partly cloudy 10 - - - -
30/09:30am 14.8 N 10 15 994.0 - 0.0 - Partly cloudy 10 - - - -
30/09:00am 14.4 N 11 17 993.9 - 2.8 - Mostly clear 10 - - - -
30/08:30am 14.4 N 9 13 994.1 - 2.8 - Partly cloudy 10 - - - -
30/08:00am 13.6 N 9 14 994.2 - 2.8 - Partly cloudy 10 - - - -
30/07:30am 13.0 N 9 13 994.3 - 2.8 - Partly cloudy 10 - - - -
30/07:00am 13.0 N 10 14 994.1 - 2.8 - Partly cloudy 10 - - - -
30/06:30am 12.5 N 8 13 994.2 - 2.8 - Cloudy 10 - - - -
30/06:00am 12.4 NNE 9 12 994.1 - 2.8 - Mostly cloudy 10 - - - -
30/05:30am 12.5 N 9 15 994.0 - 2.8 - Partly cloudy 10 - - - -
30/05:00am 12.4 N 9 15 993.9 - 2.8 - - 10 - - - -
30/04:30am 12.4 N 9 15 994.0 - 2.8 - - 10 - - - -
30/04:00am 12.7 N 9 15 994.0 - 2.8 - Partly cloudy 10 - - - -
30/03:30am 10.8 N 5 7 994.1 - 2.8 - Partly cloudy 10 - - - -
30/03:00am 12.3 N 2 10 994.1 - 2.8 - Cloudy 10 - - - -
30/02:30am 12.7 NNW 5 10 994.1 - 2.8 - - 10 - - - -
30/02:00am 11.5 NW 3 8 994.3 - 2.8 - - 10 - - - -
30/01:30am 12.4 NW 4 8 994.5 - 2.8 - - 10 - - - -
30/01:00am 12.7 NW 8 12 994.9 - 2.8 - - 10 - - - -
30/12:30am 12.9 NNW 10 16 995.2 - 2.8 - - 10 - - - -
30/12:00am 11.8 NNW 6 9 995.5 - 2.8 - - 10 - - - -
 
Date/Time
EST
Temp
°C
Wind Pressure Rain since
9am
mm
Weather Cloud Vis
km
Sea
Height
m
Swell
Dir  Spd
kts
Gust
kts
hPa Trend Height
m
Period
s
Dir
29/11:30pm 11.7 NNW 7 11 995.3 - 2.8 - - 10 - - - -
29/11:00pm 11.6 NNW 8 12 995.6 - 2.8 - - 10 - - - -
29/10:30pm 12.6 NNW 11 21 995.2 - 2.8 - - 10 - - - -
29/10:00pm 13.1 NW 10 18 995.3 - 2.8 - - 10 - - - -
29/09:30pm 13.5 NNW 8 14 995.4 - 2.8 - - 10 - - - -
29/09:00pm 13.8 NNW 6 10 994.8 - 2.8 - Mostly cloudy 10 - - - -
29/08:30pm 14.4 NNW 8 15 994.9 - 2.8 - - 10 - - - -
29/08:00pm 13.7 NNW 6 11 994.8 - 2.8 - - 10 - - - -
29/07:30pm 13.1 NNW 3 5 994.5 - 2.8 - - 10 - - - -
29/07:00pm 14.0 NW 3 6 994.0 - 2.8 - - 10 - - - -
29/06:30pm 14.8 NW 4 8 993.6 - 2.8 - - 10 - - - -
29/06:00pm 16.1 NNW 8 14 993.1 - 2.8 - - 10 - - - -
29/05:30pm 17.3 NW 9 19 993.2 - 2.8 - - 10 - - - -
29/05:00pm 18.3 NNW 10 16 992.6 - 2.8 - - 10 - - - -
29/04:30pm 18.7 NNW 11 19 992.4 - 2.8 - - 10 - - - -
29/04:00pm 19.1 NW 11 18 992.1 - 2.8 - Partly cloudy 10 - - - -
29/03:30pm 20.2 NW 10 18 991.2 - 2.8 - Partly cloudy 10 - - - -
29/03:00pm 20.3 NNW 11 19 991.1 - 2.6 - Mostly clear 10 - - - -
29/02:30pm 20.7 N 9 16 991.5 - 2.6 - Partly cloudy 10 - - - -
29/02:00pm 17.9 NNE 17 21 991.8 - 2.6 - Partly cloudy 10 - - - -
29/01:30pm 18.7 NNE 13 18 992.1 - 2.6 - - 10 - - - -
29/01:00pm 17.5 NNE 14 18 992.7 - 2.6 - - 10 - - - -
29/12:30pm 15.7 N 9 14 993.5 - 2.6 - Partly cloudy 10 - - - -
29/12:00pm 14.3 N 9 13 994.8 - 2.6 Recent precip. Partly cloudy 10 - - - -
29/11:30am 13.8 N 10 14 994.8 - 2.6 - Partly cloudy 10 - - - -
29/11:00am 13.2 N 10 16 995.9 - 2.4 - Partly cloudy 10 - - - -
29/10:30am 13.3 N 12 19 995.6 - 2.2 - Partly cloudy 10 - - - -
29/10:03am 12.8 N 15 26 996.1 - 2.0 - Partly cloudy 10 - - - -
29/10:00am 12.8 N 15 23 996.4 - 1.8 - Partly cloudy 10 - - - -
29/09:30am 12.4 N 10 15 997.4 - 1.0 - Partly cloudy 10 - - - -
29/09:00am 11.9 N 8 11 997.8 - 5.8 Rain Mostly cloudy 9 - - - -
29/08:30am 11.3 N 5 7 998.4 - 4.8 - Partly cloudy 7 - - - -
29/08:00am 11.0 N 3 6 999.1 - 3.6 - Partly cloudy 6 - - - -
29/07:56am 11.0 NE 4 6 999.4 - 3.4 - Partly cloudy 7 - - - -
29/07:48am 10.7 ENE 3 5 999.2 - 3.0 - Partly cloudy 7 - - - -
29/07:33am 10.4 NW 1 5 999.8 - 2.0 - Partly cloudy 5 - - - -
29/07:30am 10.3 NW 2 5 999.9 - 1.8 - Partly cloudy 5 - - - -
29/07:18am 10.3 WSW 1 4 1000.1 - 1.2 - Partly cloudy 5 - - - -
29/07:00am 10.3 CALM 0 3 1000.0 - 0.4 - Partly cloudy 10 - - - -
29/06:30am 10.0 SW 3 5 1000.6 - 0.0 - Partly cloudy 10 - - - -
29/06:00am 9.5 WNW 3 4 1000.8 - 0.0 - Mostly cloudy 10 - - - -
29/05:30am 9.4 SSW 1 5 1001.0 - 0.0 - Partly cloudy 10 - - - -
29/05:00am 9.3 WNW 4 6 1001.5 - 0.0 - Partly cloudy 10 - - - -
29/04:30am 8.8 WNW 4 6 1001.5 - 0.0 - - 10 - - - -
29/04:00am 9.1 SW 5 7 1001.8 - 0.0 - - 10 - - - -
29/03:30am 8.0 NW 4 6 1002.2 - 0.0 - - 10 - - - -
29/03:00am 7.6 NW 5 6 1003.1 - 0.0 - - 10 - - - -
29/02:30am 7.6 CALM 0 0 1003.8 - 0.0 - - 10 - - - -
29/02:00am 7.8 CALM 0 0 1004.6 - 0.0 - - 10 - - - -
29/01:30am 8.5 CALM 0 0 1005.0 - 0.0 - - 10 - - - -
29/01:00am 8.9 NNW 5 6 1005.5 - 0.0 - - 10 - - - -
29/12:30am 9.1 NNW 4 7 1006.1 - 0.0 - - 10 - - - -
29/12:00am 9.4 NNW 5 7 1006.8 - 0.0 - - 10 - - - -
 
Date/Time
EST
Temp
°C
Wind Pressure Rain since
9am
mm
Weather Cloud Vis
km
Sea
Height
m
Swell
Dir  Spd
kts
Gust
kts
hPa Trend Height
m
Period
s
Dir
28/11:30pm 9.9 NW 3 4 1007.2 - 0.0 - - 10 - - - -
28/11:00pm 9.6 NNW 4 5 1007.6 - 0.0 - - 10 - - - -
28/10:30pm 10.1 NW 3 5 1008.0 - 0.0 - - 10 - - - -
28/10:00pm 10.8 NNW 5 8 1008.5 - 0.0 - - 10 - - - -
28/09:30pm 10.5 NNW 5 6 1008.7 - 0.0 - - 10 - - - -
28/09:00pm 10.5 NW 4 5 1009.1 - 0.0 - Partly cloudy 10 - - - -
28/08:30pm 10.8 NW 4 5 1009.5 - 0.0 - Partly cloudy 10 - - - -
28/08:00pm 11.8 NNW 4 5 1009.5 - 0.0 - - 10 - - - -
28/07:30pm 13.4 N 5 7 1009.6 - 0.0 - - 10 - - - -
28/07:00pm 14.5 N 6 8 1009.5 - 0.0 - Partly cloudy 10 - - - -
28/06:30pm 14.5 N 6 9 1009.6 - 0.0 - Partly cloudy 10 - - - -
28/06:00pm 15.2 NNE 11 14 1009.8 - 0.0 - - 10 - - - -
28/05:30pm 15.4 NE 10 15 1009.8 - 0.0 - - 10 - - - -
28/05:00pm 16.0 NE 10 13 1009.9 - 0.0 - - 10 - - - -
28/04:30pm 16.6 NE 11 14 1010.0 - 0.0 - - 10 - - - -
28/04:00pm 16.8 ENE 11 14 1010.0 - 0.0 - - 10 - - - -
28/03:30pm 17.0 ENE 11 14 1010.2 - 0.0 - - 10 - - - -
28/03:00pm 17.4 ENE 11 13 1010.6 - 0.0 - - 10 - - - -
28/02:30pm 17.5 ENE 11 13 1011.0 - 0.0 - - 10 - - - -
28/02:00pm 17.7 ENE 12 14 1011.4 - 0.0 - - 10 - - - -
28/01:30pm 17.5 ENE 11 14 1011.9 - 0.0 - - 10 - - - -
28/01:00pm 17.2 ENE 10 12 1012.2 - 0.0 - - 10 - - - -
28/12:30pm 17.3 ENE 10 12 1012.5 - 0.0 - - 10 - - - -
28/12:00pm 16.9 ENE 9 11 1012.8 - 0.0 - - 10 - - - -
28/11:30am 16.9 ENE 8 11 1013.0 - 0.0 - - 10 - - - -
28/11:00am 16.9 ENE 7 9 1013.3 - 0.0 - - 10 - - - -
28/10:30am 16.3 ENE 6 7 1013.7 - 0.0 - - 10 - - - -
28/10:00am 15.8 ENE 6 8 1014.1 - 0.0 - - 10 - - - -
28/09:30am 15.6 E 5 6 1014.3 - 0.0 - - 10 - - - -
28/09:00am 14.9 E 5 6 1014.3 - 0.0 - - 10 - - - -
28/08:30am 13.9 SSW 4 6 1014.4 - 0.0 - - 10 - - - -
28/08:00am 12.0 SW 6 7 1014.6 - 0.0 - - 10 - - - -
28/07:30am 10.2 SW 6 7 1014.4 - 0.0 - - 10 - - - -
28/07:00am 8.5 WSW 5 6 1014.1 - 0.0 - - 10 - - - -
28/06:30am 6.2 SW 4 5 1013.8 - 0.0 - - 10 - - - -
28/06:00am 4.5 CALM 0 0 1013.6 - 0.0 - - 10 - - - -
28/05:30am 4.1 CALM 0 0 1013.2 - 0.0 - - 10 - - - -
28/05:00am 4.7 CALM 0 0 1013.1 - 0.0 - - 10 - - - -
28/04:30am 5.5 CALM 0 0 1012.9 - 0.0 - - 10 - - - -
28/04:00am 5.7 W 3 4 1012.6 - 0.0 - - 10 - - - -
28/03:30am 5.6 WSW 1 3 1012.4 - 0.0 - - 10 - - - -
28/03:00am 6.0 WSW 4 6 1012.4 - 0.0 - - 10 - - - -
28/02:30am 6.2 NNW 3 4 1012.4 - 0.0 - - 10 - - - -
28/02:00am 6.8 W 4 6 1012.3 - 0.0 - - 10 - - - -
28/01:30am 7.1 WSW 4 5 1012.3 - 0.0 - - 10 - - - -

Other Formats:

Comma delimited format used in spreadsheet applications
http://www.bom.gov.au/fwo/IDN60701/IDN60701.95937.axf

JavaScript Object Notation format (JSON) in row-major order
http://www.bom.gov.au/fwo/IDN60701/IDN60701.95937.json